createdAt,value
2018-06-21T00:02:26.762Z,32.40
2018-06-21T00:04:56.038Z,33.00
2018-06-21T00:07:25.312Z,33.30
2018-06-21T00:09:54.500Z,33.50
2018-06-21T00:12:23.737Z,33.80
2018-06-21T00:14:52.963Z,34.10
2018-06-21T00:17:22.373Z,34.20
2018-06-21T00:19:51.543Z,34.20
2018-06-21T00:22:20.746Z,34.40
2018-06-21T00:24:50.011Z,34.60
2018-06-21T00:27:19.300Z,34.90
2018-06-21T00:29:48.592Z,36.00
2018-06-21T00:32:17.898Z,35.20
2018-06-21T00:34:47.315Z,35.30
2018-06-21T00:37:16.588Z,35.50
2018-06-21T00:39:45.858Z,35.50
2018-06-21T00:42:15.086Z,35.30
2018-06-21T00:44:44.307Z,35.30
2018-06-21T00:47:13.597Z,35.40
2018-06-21T00:49:42.816Z,36.00
2018-06-21T00:52:12.053Z,36.00
2018-06-21T00:54:41.369Z,36.00
2018-06-21T00:57:10.664Z,36.00
2018-06-21T00:59:39.982Z,36.00
2018-06-21T01:02:09.185Z,35.90
2018-06-21T01:04:38.356Z,35.80
2018-06-21T01:07:07.617Z,36.30
2018-06-21T01:09:36.836Z,36.30
2018-06-21T01:12:06.048Z,36.30
2018-06-21T01:14:35.311Z,36.70
2018-06-21T01:17:04.488Z,36.60
2018-06-21T01:19:33.672Z,37.20
2018-06-21T01:22:02.854Z,37.60
2018-06-21T01:24:32.063Z,37.70
2018-06-21T01:27:01.272Z,37.70
2018-06-21T01:29:30.505Z,37.80
2018-06-21T01:31:59.734Z,37.80
2018-06-21T01:34:28.905Z,38.00
2018-06-21T01:36:58.111Z,37.90
2018-06-21T01:39:27.323Z,38.30
2018-06-21T01:41:56.515Z,38.70
2018-06-21T01:44:25.839Z,38.40
2018-06-21T01:46:55.538Z,39.30
2018-06-21T01:49:24.735Z,39.30
2018-06-21T01:51:53.985Z,39.40
2018-06-21T01:54:23.240Z,39.60
2018-06-21T01:56:52.507Z,39.70
2018-06-21T01:59:21.698Z,40.00
2018-06-21T02:01:50.890Z,40.00
2018-06-21T02:04:20.107Z,40.00
2018-06-21T02:06:49.265Z,40.20
2018-06-21T02:09:18.467Z,40.80
2018-06-21T02:11:47.691Z,40.70
2018-06-21T02:14:16.886Z,41.40
2018-06-21T02:16:46.055Z,41.60
2018-06-21T02:19:15.225Z,42.10
2018-06-21T02:21:44.472Z,42.10
2018-06-21T02:24:13.765Z,42.80
2018-06-21T02:26:43.020Z,42.90
2018-06-21T02:29:12.278Z,43.20
2018-06-21T02:31:41.479Z,43.20
2018-06-21T02:34:10.765Z,43.20
2018-06-21T02:36:39.944Z,43.00
2018-06-21T02:39:09.906Z,44.00
2018-06-21T02:41:39.127Z,42.80
2018-06-21T02:44:08.379Z,42.50
2018-06-21T02:46:37.619Z,42.40
2018-06-21T02:49:06.814Z,42.40
2018-06-21T02:51:35.981Z,42.50
2018-06-21T02:54:05.215Z,42.20
2018-06-21T02:56:34.428Z,42.20
2018-06-21T02:59:03.636Z,43.40
2018-06-21T03:01:32.856Z,43.70
2018-06-21T03:04:02.063Z,42.30
2018-06-21T03:06:31.195Z,42.40
2018-06-21T03:09:00.444Z,42.50
2018-06-21T03:11:29.598Z,42.60
2018-06-21T03:13:58.805Z,43.50
2018-06-21T03:16:27.975Z,43.60
2018-06-21T03:18:57.137Z,43.80
2018-06-21T03:21:26.294Z,43.80
2018-06-21T03:23:55.664Z,43.50
2018-06-21T03:26:24.846Z,43.10
2018-06-21T03:28:54.042Z,42.90
2018-06-21T03:31:23.518Z,42.30
2018-06-21T03:33:52.780Z,42.00
2018-06-21T03:36:21.984Z,42.30
2018-06-21T03:38:51.219Z,41.40
2018-06-21T03:41:20.436Z,41.30
2018-06-21T03:43:49.636Z,40.70
2018-06-21T03:46:18.802Z,40.00
2018-06-21T03:48:48.010Z,40.00
2018-06-21T03:51:17.142Z,39.70
2018-06-21T03:53:46.308Z,38.90
2018-06-21T03:56:15.511Z,38.90
2018-06-21T03:58:44.750Z,38.20
2018-06-21T04:01:14.004Z,37.70
2018-06-21T04:03:43.231Z,37.80
2018-06-21T04:06:12.415Z,37.50
2018-06-21T04:08:41.567Z,37.80
2018-06-21T04:11:10.811Z,37.50
2018-06-21T04:13:39.994Z,37.20
2018-06-21T04:16:09.169Z,36.70
2018-06-21T04:18:38.498Z,36.00
2018-06-21T04:21:09.119Z,36.10
2018-06-21T04:23:38.277Z,35.40
2018-06-21T04:26:07.445Z,35.10
2018-06-21T04:28:36.597Z,34.70
2018-06-21T04:31:05.741Z,34.80
2018-06-21T04:33:34.909Z,34.80
2018-06-21T04:36:04.089Z,34.60
2018-06-21T04:38:33.270Z,34.30
2018-06-21T04:41:02.395Z,34.30
2018-06-21T04:43:31.643Z,33.90
2018-06-21T04:46:00.899Z,33.70
2018-06-21T04:48:30.115Z,33.60
2018-06-21T04:50:59.248Z,33.00
2018-06-21T04:53:28.480Z,33.40
2018-06-21T04:55:57.630Z,33.20
2018-06-21T04:58:26.844Z,33.00
2018-06-21T05:00:56.068Z,32.50
2018-06-21T05:03:25.296Z,31.80
2018-06-21T05:05:54.519Z,31.30
2018-06-21T05:08:23.701Z,30.90
2018-06-21T05:10:52.859Z,30.20
2018-06-21T05:13:22.139Z,29.80
2018-06-21T05:15:51.393Z,29.80
2018-06-21T05:18:20.670Z,29.60
2018-06-21T05:20:49.787Z,29.50
2018-06-21T05:23:18.945Z,29.10
2018-06-21T05:25:48.181Z,29.10
2018-06-21T05:28:17.338Z,29.20
2018-06-21T05:30:46.474Z,28.20
2018-06-21T05:33:16.594Z,28.60
2018-06-21T05:35:45.712Z,27.80
2018-06-21T05:38:14.835Z,26.80
2018-06-21T05:40:44.013Z,26.80
2018-06-21T05:43:13.146Z,27.20
2018-06-21T05:45:42.257Z,26.40
2018-06-21T05:48:11.427Z,26.50
2018-06-21T05:50:40.561Z,25.70
2018-06-21T05:53:09.731Z,25.50
2018-06-21T05:55:38.858Z,25.30
2018-06-21T05:58:08.040Z,24.10
2018-06-21T06:00:37.206Z,24.30
2018-06-21T06:03:06.409Z,24.40
2018-06-21T06:05:35.534Z,24.50
2018-06-21T06:08:04.709Z,24.50
2018-06-21T06:10:33.906Z,23.90
2018-06-21T06:13:03.073Z,23.40
2018-06-21T06:15:32.230Z,23.00
2018-06-21T06:18:01.362Z,22.60
2018-06-21T06:20:30.476Z,21.50
2018-06-21T06:22:59.622Z,21.50
2018-06-21T06:25:28.842Z,21.60
2018-06-21T06:27:57.995Z,21.20
2018-06-21T06:30:27.170Z,20.40
2018-06-21T06:32:56.329Z,20.60
2018-06-21T06:35:30.886Z,19.10
2018-06-21T06:38:00.951Z,19.70
2018-06-21T06:40:30.307Z,18.90
2018-06-21T06:42:59.397Z,18.50
2018-06-21T06:45:28.579Z,18.40
2018-06-21T06:47:57.727Z,18.30
2018-06-21T06:50:26.932Z,18.20
2018-06-21T06:52:56.069Z,17.40
2018-06-21T06:55:25.181Z,17.60
2018-06-21T06:57:54.366Z,16.40
2018-06-21T07:00:23.595Z,17.50
2018-06-21T07:02:52.827Z,16.30
2018-06-21T07:05:21.926Z,16.50
2018-06-21T07:07:51.070Z,15.30
2018-06-21T07:10:20.256Z,15.10
2018-06-21T07:12:49.422Z,15.00
2018-06-21T07:15:18.616Z,14.40
2018-06-21T07:17:47.737Z,13.90
2018-06-21T07:20:16.896Z,13.90
2018-06-21T07:22:46.024Z,14.20
2018-06-21T07:25:15.177Z,15.00
2018-06-21T07:27:44.272Z,14.30
2018-06-21T07:30:13.523Z,14.30
2018-06-21T07:32:42.742Z,14.40
2018-06-21T07:35:12.088Z,14.20
2018-06-21T07:37:41.270Z,14.10
2018-06-21T07:40:10.432Z,14.50
2018-06-21T07:42:41.717Z,14.60
2018-06-21T07:45:10.871Z,15.30
2018-06-21T07:47:39.970Z,15.20
2018-06-21T07:50:09.170Z,14.50
2018-06-21T07:52:38.327Z,14.30
2018-06-21T07:55:07.551Z,14.30
2018-06-21T07:57:36.709Z,14.40
2018-06-21T08:00:05.908Z,13.50
2018-06-21T08:02:35.124Z,12.20
2018-06-21T08:05:04.257Z,12.50
2018-06-21T08:07:33.401Z,12.70
2018-06-21T08:10:02.601Z,12.60
2018-06-21T08:12:31.722Z,12.40
2018-06-21T08:15:00.863Z,12.70
2018-06-21T08:17:30.036Z,12.80
2018-06-21T08:19:59.237Z,11.70
2018-06-21T08:22:28.479Z,11.70
2018-06-21T08:24:57.634Z,11.50
2018-06-21T08:27:26.737Z,11.20
2018-06-21T08:29:55.921Z,11.30
2018-06-21T08:32:25.128Z,11.80
2018-06-21T08:34:54.286Z,11.40
2018-06-21T08:37:23.385Z,10.40
2018-06-21T08:39:52.604Z,10.80
2018-06-21T08:42:21.734Z,11.30
2018-06-21T08:44:50.937Z,10.90
2018-06-21T08:47:20.235Z,11.50
2018-06-21T08:49:49.418Z,11.60
2018-06-21T08:52:18.497Z,11.20
2018-06-21T08:54:47.661Z,10.90
2018-06-21T08:57:16.877Z,10.80
2018-06-21T08:59:46.033Z,10.60
2018-06-21T09:02:15.293Z,10.40
2018-06-21T09:04:44.489Z,10.30
2018-06-21T09:07:13.630Z,10.50
2018-06-21T09:09:42.810Z,10.70
2018-06-21T09:12:11.931Z,11.00
2018-06-21T09:14:41.178Z,11.10
2018-06-21T09:17:10.356Z,11.10
2018-06-21T09:19:39.534Z,12.50
2018-06-21T09:22:08.671Z,11.80
2018-06-21T09:24:37.862Z,11.80
2018-06-21T09:27:07.106Z,11.30
2018-06-21T09:29:36.478Z,10.90
2018-06-21T09:32:05.578Z,10.80
2018-06-21T09:34:34.800Z,10.40
2018-06-21T09:37:04.013Z,10.70
2018-06-21T09:39:38.559Z,11.00
2018-06-21T09:42:12.909Z,10.80
2018-06-21T09:44:47.434Z,10.30
2018-06-21T09:47:21.977Z,9.80
2018-06-21T09:49:51.091Z,9.10
2018-06-21T09:52:20.244Z,8.80
2018-06-21T09:54:49.388Z,8.70
2018-06-21T09:57:18.626Z,7.60
2018-06-21T09:59:47.815Z,7.50
2018-06-21T10:02:16.957Z,6.60
2018-06-21T10:04:46.089Z,7.10
2018-06-21T10:07:15.268Z,6.80
2018-06-21T10:09:44.415Z,6.70
2018-06-21T10:12:13.592Z,6.70
2018-06-21T10:14:42.760Z,6.60
2018-06-21T10:17:11.938Z,6.00
2018-06-21T10:19:42.068Z,5.90
2018-06-21T10:22:11.154Z,5.50
2018-06-21T10:24:40.232Z,4.70
2018-06-21T10:27:09.402Z,3.80
2018-06-21T10:29:38.531Z,3.80
2018-06-21T10:32:07.791Z,3.80
2018-06-21T10:34:36.972Z,4.00
2018-06-21T10:37:06.112Z,5.00
2018-06-21T10:39:35.257Z,4.60
2018-06-21T10:42:04.349Z,4.30
2018-06-21T10:44:33.485Z,3.10
2018-06-21T10:47:02.599Z,3.50
2018-06-21T10:49:31.744Z,4.00
2018-06-21T10:52:00.921Z,8.10
2018-06-21T10:54:30.084Z,9.30
2018-06-21T10:56:59.227Z,10.50
2018-06-21T10:59:28.398Z,11.90
2018-06-21T11:01:57.544Z,13.30
2018-06-21T11:04:26.661Z,14.50
2018-06-21T11:06:55.802Z,15.30
2018-06-21T11:09:25.230Z,16.60
2018-06-21T11:11:54.443Z,23.60
2018-06-21T11:14:23.618Z,28.60
2018-06-21T11:16:52.796Z,31.50
2018-06-21T11:19:21.896Z,37.20
2018-06-21T11:21:51.047Z,37.30
2018-06-21T11:24:20.265Z,35.00
2018-06-21T11:26:49.383Z,31.70
2018-06-21T11:29:18.468Z,26.80
2018-06-21T11:31:47.598Z,22.80
2018-06-21T11:34:16.824Z,21.10
2018-06-21T11:36:45.964Z,21.20
2018-06-21T11:39:15.128Z,21.10
2018-06-21T11:41:44.240Z,18.20
2018-06-21T11:44:13.421Z,16.40
2018-06-21T11:46:42.632Z,15.40
2018-06-21T11:49:11.842Z,14.90
2018-06-21T11:51:41.137Z,15.20
2018-06-21T11:54:10.301Z,14.00
2018-06-21T11:56:39.508Z,15.50
2018-06-21T11:59:08.701Z,17.20
2018-06-21T12:01:37.844Z,17.70
2018-06-21T12:04:06.997Z,17.10
2018-06-21T12:06:36.167Z,16.10
2018-06-21T12:09:08.897Z,15.90
2018-06-21T12:11:38.069Z,17.10
2018-06-21T12:14:07.565Z,19.40
2018-06-21T12:16:37.083Z,21.00
2018-06-21T12:19:06.329Z,22.70
2018-06-21T12:21:36.145Z,23.70
2018-06-21T12:24:05.797Z,24.30
2018-06-21T12:26:35.137Z,25.50
2018-06-21T12:29:04.300Z,25.40
2018-06-21T12:31:38.353Z,26.20
2018-06-21T12:34:08.623Z,27.90
2018-06-21T12:36:38.405Z,28.20
2018-06-21T12:39:08.793Z,34.80
2018-06-21T12:41:39.218Z,41.70
2018-06-21T12:44:08.357Z,44.00
2018-06-21T12:46:38.470Z,50.50
2018-06-21T12:49:07.621Z,52.40
2018-06-21T12:51:37.536Z,54.10
2018-06-21T12:54:07.405Z,62.80
2018-06-21T12:56:36.573Z,63.50
2018-06-21T12:59:05.780Z,63.20
2018-06-21T13:01:34.954Z,60.90
2018-06-21T13:04:04.226Z,66.60
2018-06-21T13:06:33.465Z,64.90
2018-06-21T13:09:19.801Z,65.80
2018-06-21T13:12:34.665Z,71.10
2018-06-21T13:15:03.822Z,71.60
2018-06-21T13:17:33.193Z,77.40
2018-06-21T13:20:03.565Z,78.90
2018-06-21T13:22:32.649Z,82.40
2018-06-21T13:25:01.855Z,83.30
2018-06-21T13:27:30.980Z,84.60
2018-06-21T13:30:00.185Z,80.00
2018-06-21T13:32:29.396Z,81.20
2018-06-21T13:34:58.533Z,89.00
2018-06-21T13:37:27.758Z,50.80
2018-06-21T13:39:56.905Z,32.70
2018-06-21T13:42:26.086Z,25.20
2018-06-21T13:47:24.209Z,24.90
2018-06-21T13:49:53.361Z,18.50
2018-06-21T13:52:23.497Z,15.00
2018-06-21T13:54:52.635Z,15.10
2018-06-21T13:57:21.813Z,16.50
2018-06-21T13:59:51.075Z,19.60
2018-06-21T14:02:20.232Z,24.80
2018-06-21T14:04:49.394Z,26.30
2018-06-21T14:07:18.569Z,29.50
2018-06-21T14:09:47.747Z,34.40
2018-06-21T14:12:16.913Z,32.10
2018-06-21T14:14:46.041Z,33.10
2018-06-21T14:17:16.146Z,35.50
2018-06-21T14:19:45.262Z,34.60
2018-06-21T14:22:14.491Z,34.10
2018-06-21T14:24:43.816Z,29.30
2018-06-21T14:27:12.996Z,27.20
2018-06-21T14:29:42.052Z,26.70
2018-06-21T14:32:11.256Z,26.70
2018-06-21T14:34:40.386Z,25.90
2018-06-21T14:37:09.554Z,22.50
2018-06-21T14:39:38.759Z,20.90
2018-06-21T14:42:08.163Z,21.10
2018-06-21T14:44:37.435Z,19.70
2018-06-21T14:47:06.592Z,16.60
2018-06-21T14:49:35.808Z,16.30
2018-06-21T14:52:04.967Z,12.60
2018-06-21T14:54:34.253Z,9.20
2018-06-21T14:57:03.436Z,9.70
2018-06-21T14:59:32.710Z,10.20
2018-06-21T15:02:01.831Z,11.00
2018-06-21T15:04:30.991Z,7.50
2018-06-21T15:07:00.129Z,3.70
2018-06-21T15:09:29.221Z,1.10
2018-06-21T15:11:58.393Z,1.00
2018-06-21T15:14:27.535Z,1.00
2018-06-21T15:16:56.745Z,1.00
2018-06-21T15:19:25.907Z,1.00
2018-06-21T15:21:55.054Z,1.00
2018-06-21T15:24:24.240Z,1.00
2018-06-21T15:26:53.430Z,1.00
2018-06-21T15:29:22.599Z,1.00
2018-06-21T15:31:51.732Z,1.00
2018-06-21T15:34:20.867Z,1.00
2018-06-21T15:36:50.013Z,1.00
2018-06-21T15:39:23.053Z,1.00
2018-06-21T15:41:52.247Z,1.00
2018-06-21T15:44:21.449Z,1.00
2018-06-21T15:46:50.554Z,1.00
2018-06-21T15:49:19.710Z,1.00
2018-06-21T15:51:48.915Z,1.00
2018-06-21T15:54:18.100Z,1.00
2018-06-21T15:56:47.331Z,2.30
2018-06-21T15:59:16.461Z,1.20
2018-06-21T16:01:45.646Z,1.00
2018-06-21T16:04:14.831Z,1.00
2018-06-21T16:06:44.018Z,1.00
2018-06-21T16:09:13.149Z,1.00
2018-06-21T16:11:42.329Z,1.00
2018-06-21T16:14:13.947Z,1.00
2018-06-21T16:16:43.073Z,1.00
2018-06-21T16:19:12.258Z,1.00
2018-06-21T16:21:41.385Z,1.00
2018-06-21T16:24:10.599Z,1.00
2018-06-21T16:26:39.656Z,1.00
2018-06-21T16:29:08.831Z,1.00
2018-06-21T16:31:37.969Z,1.00
2018-06-21T16:34:07.118Z,1.00
2018-06-21T16:36:36.314Z,1.00
2018-06-21T16:39:09.333Z,1.00
2018-06-21T16:41:38.642Z,2.00
2018-06-21T16:44:07.835Z,4.50
2018-06-21T16:46:36.938Z,6.20
2018-06-21T16:49:06.546Z,7.30
2018-06-21T16:51:35.789Z,5.80
2018-06-21T16:54:04.932Z,3.00
2018-06-21T16:56:34.919Z,2.10
2018-06-21T16:59:04.135Z,1.50
2018-06-21T17:01:33.404Z,1.00
2018-06-21T17:04:03.046Z,1.00
2018-06-21T17:06:32.373Z,1.00
2018-06-21T17:09:01.667Z,2.70
2018-06-21T17:11:30.763Z,4.80
2018-06-21T17:13:59.982Z,6.30
2018-06-21T17:16:29.165Z,7.70
2018-06-21T17:18:58.384Z,8.20
2018-06-21T17:21:27.582Z,6.70
2018-06-21T17:23:56.715Z,6.70
2018-06-21T17:26:25.882Z,7.40
2018-06-21T17:28:55.097Z,8.10
2018-06-21T17:31:24.309Z,8.70
2018-06-21T17:33:53.476Z,8.30
2018-06-21T17:36:22.631Z,7.60
2018-06-21T17:38:51.768Z,6.70
2018-06-21T17:41:20.946Z,5.60
2018-06-21T17:43:50.141Z,6.50
2018-06-21T17:46:19.276Z,5.90
2018-06-21T17:48:48.451Z,4.10
2018-06-21T17:51:17.609Z,3.30
2018-06-21T17:53:46.726Z,2.90
2018-06-21T17:56:15.946Z,3.00
2018-06-21T17:58:45.066Z,2.30
2018-06-21T18:01:14.144Z,3.20
2018-06-21T18:03:43.314Z,4.40
2018-06-21T18:06:12.489Z,5.30
2018-06-21T18:08:41.697Z,5.20
2018-06-21T18:11:10.875Z,6.60
2018-06-21T18:13:40.029Z,7.60
2018-06-21T18:16:09.276Z,7.90
2018-06-21T18:18:38.486Z,8.60
2018-06-21T18:21:07.714Z,9.10
2018-06-21T18:23:36.779Z,9.70
2018-06-21T18:26:06.577Z,11.50
2018-06-21T18:28:35.824Z,11.50
2018-06-21T18:31:04.991Z,12.20
2018-06-21T18:33:35.221Z,12.10
2018-06-21T18:36:04.672Z,12.10
2018-06-21T18:38:33.826Z,12.10
2018-06-21T18:41:02.994Z,12.50
2018-06-21T18:43:32.146Z,13.00
2018-06-21T18:46:01.333Z,13.20
2018-06-21T18:48:30.461Z,13.60
2018-06-21T18:50:59.606Z,13.40
2018-06-21T18:53:28.705Z,12.20
2018-06-21T18:55:57.970Z,11.80
2018-06-21T18:58:27.142Z,12.20
2018-06-21T19:00:56.282Z,12.40
2018-06-21T19:03:25.461Z,12.80
2018-06-21T19:05:54.649Z,12.90
2018-06-21T19:08:29.300Z,13.10
2018-06-21T19:11:03.753Z,13.40
2018-06-21T19:13:32.860Z,13.50
2018-06-21T19:16:05.130Z,13.80
2018-06-21T19:18:34.261Z,14.10
2018-06-21T19:21:03.442Z,14.00
2018-06-21T19:23:32.619Z,14.10
2018-06-21T19:28:31.150Z,14.90
2018-06-21T19:31:00.293Z,15.20
2018-06-21T19:33:29.445Z,15.70
2018-06-21T19:35:58.838Z,15.50
2018-06-21T19:38:28.262Z,16.30
2018-06-21T19:40:57.601Z,16.50
2018-06-21T19:43:26.793Z,16.70
2018-06-21T19:45:55.958Z,17.00
2018-06-21T19:48:25.212Z,17.50
2018-06-21T19:50:54.357Z,17.10
2018-06-21T19:53:23.526Z,17.50
2018-06-21T19:55:52.650Z,17.70
2018-06-21T19:58:21.840Z,18.00
2018-06-21T20:00:51.150Z,18.20
2018-06-21T20:03:20.345Z,18.50
2018-06-21T20:05:49.501Z,18.70
2018-06-21T20:08:18.626Z,19.10
2018-06-21T20:10:51.914Z,19.50
2018-06-21T20:13:21.080Z,19.50
2018-06-21T20:15:52.103Z,19.50
2018-06-21T20:18:22.114Z,19.40
2018-06-21T20:20:51.986Z,20.00
2018-06-21T20:23:21.453Z,20.60
2018-06-21T20:25:51.303Z,20.60
2018-06-21T20:28:20.525Z,20.80
2018-06-21T20:30:49.846Z,21.30
2018-06-21T20:33:19.123Z,21.80
2018-06-21T20:35:48.696Z,22.50
2018-06-21T20:38:17.815Z,22.50
2018-06-21T20:40:46.990Z,22.60
2018-06-21T20:43:16.332Z,23.00
2018-06-21T20:45:45.527Z,22.90
2018-06-21T20:48:15.062Z,22.80
2018-06-21T20:50:44.530Z,23.30
2018-06-21T20:53:13.668Z,23.10
2018-06-21T20:55:43.015Z,23.30
2018-06-21T20:58:12.231Z,23.50
2018-06-21T21:00:41.394Z,23.30
2018-06-21T21:03:10.808Z,23.90
2018-06-21T21:05:40.661Z,24.30
2018-06-21T21:08:09.780Z,24.70
2018-06-21T21:10:38.943Z,25.00
2018-06-21T21:13:08.084Z,25.10
2018-06-21T21:15:37.152Z,25.00
2018-06-21T21:18:06.315Z,25.20
2018-06-21T21:20:36.581Z,25.40
2018-06-21T21:23:05.869Z,26.00
2018-06-21T21:25:34.999Z,26.70
2018-06-21T21:28:04.164Z,26.70
2018-06-21T21:30:33.312Z,26.90
2018-06-21T21:33:02.471Z,26.90
2018-06-21T21:35:31.599Z,27.40
2018-06-21T21:38:00.815Z,27.90
2018-06-21T21:40:29.991Z,28.00
2018-06-21T21:42:59.150Z,28.10
2018-06-21T21:45:28.237Z,28.10
2018-06-21T21:47:57.408Z,28.00
2018-06-21T21:50:26.490Z,27.80
2018-06-21T21:52:55.640Z,27.60
2018-06-21T21:55:24.767Z,27.60
2018-06-21T21:57:53.889Z,28.30
2018-06-21T22:00:52.682Z,29.40
2018-06-21T22:03:21.757Z,28.70
2018-06-21T22:05:50.915Z,29.50
2018-06-21T22:08:20.010Z,30.00
2018-06-21T22:10:49.425Z,30.80
2018-06-21T22:13:18.997Z,31.20
2018-06-21T22:15:48.062Z,31.90
2018-06-21T22:18:17.190Z,31.80
2018-06-21T22:20:46.319Z,32.10
2018-06-21T22:23:15.474Z,31.80
2018-06-21T22:25:44.606Z,32.00
2018-06-21T22:28:13.701Z,32.00
2018-06-21T22:30:42.795Z,32.50
2018-06-21T22:33:11.921Z,32.80
2018-06-21T22:38:09.912Z,32.70
2018-06-21T22:40:39.038Z,32.80
2018-06-21T22:43:08.153Z,33.00
2018-06-21T22:45:37.233Z,32.90
2018-06-21T22:48:06.321Z,33.20
2018-06-21T22:50:35.519Z,32.70
2018-06-21T22:53:04.697Z,32.50
2018-06-21T22:55:33.821Z,32.30
2018-06-21T22:58:02.990Z,32.00
2018-06-21T23:00:32.128Z,31.80
2018-06-21T23:03:01.217Z,30.90
2018-06-21T23:05:30.407Z,30.70
2018-06-21T23:07:59.590Z,30.60
2018-06-21T23:10:28.726Z,29.80
2018-06-21T23:12:57.873Z,29.70
2018-06-21T23:15:26.992Z,30.30
2018-06-21T23:17:56.054Z,30.60
2018-06-21T23:20:25.246Z,30.80
2018-06-21T23:22:54.399Z,31.30
2018-06-21T23:25:23.509Z,31.30
2018-06-21T23:27:52.574Z,31.20
2018-06-21T23:30:21.660Z,31.80
2018-06-21T23:32:50.842Z,31.90
2018-06-21T23:35:20.009Z,31.80
2018-06-21T23:37:49.187Z,31.90
2018-06-21T23:40:18.323Z,32.30
2018-06-21T23:42:47.462Z,33.00
2018-06-21T23:45:16.628Z,32.40
2018-06-21T23:47:45.753Z,32.70
2018-06-21T23:50:14.852Z,34.10
2018-06-21T23:52:44.011Z,33.30
2018-06-21T23:55:13.229Z,33.40
2018-06-21T23:57:42.342Z,33.90
